Killeen/Gray AAF, Texas
Current Conditions -  °F | °C
As of 1:55 AM on Friday 31 Oct 2014 (Local Time) from KILE Reporting Station
Overcast Overcast  
Wind Chill: 64°   Ceiling: 4200
Heat Index: 64°   Visibility: 10mi
Dew Point: 55°   Wind: 6mph
Humidity: 73%   Direction: 320°NW
Pressure: 30.16"   Gusts: NA
Location:  31.07°N, 97.83°W
Report Text: KILE 310655Z AUTO 32005KT 10SM BKN042 OVC049 18/13 A3016 RMK AO1
Loading
Personal Weather Stations






























Interactive Weather Map
Tropical Storm Tracking
New forecast layout! Learn more

10-Day Weather Forecast

Advertisements
Track Severe Weather on mobile